Time;durP1;ratioP1;P1;durP2;ratioP2;P2;SDS_P1;SDS_P2;PMS_P1;PMS_P2;Temp;Humidity;BMP_temperature;BMP_pressure;BME280_temperature;BME280_humidity;BME280_pressure;Samples;Min_cycle;Max_cycle;Signal;HPM_P1;HPM_P2
2022/06/23 00:00:32;;;;;;;14.10;7.90;;;;;;;20.06;100.00;99695.78;5041616;28;20204;-67
2022/06/23 00:02:59;;;;;;;14.17;8.17;;;;;;;20.06;100.00;99693.19;5037541;28;20679;-67
2022/06/23 00:05:27;;;;;;;16.20;11.70;;;;;;;19.94;100.00;99686.59;5052636;28;20176;-67
2022/06/23 00:07:58;;;;;;;19.23;9.93;;;;;;;19.78;100.00;99688.13;5052642;28;20185;-67
2022/06/23 00:10:38;;;;;;;15.80;10.27;;;;;;;19.76;100.00;99684.84;5041823;28;20214;-67
2022/06/23 00:13:21;;;;;;;14.37;10.03;;;;;;;19.71;100.00;99673.19;5054174;28;20192;-67
2022/06/23 00:15:50;;;;;;;14.77;10.67;;;;;;;19.77;100.00;99678.66;5050637;28;20179;-67
2022/06/23 00:18:20;;;;;;;20.53;10.73;;;;;;;19.79;100.00;99679.28;5052303;28;20185;-67
2022/06/23 00:20:50;;;;;;;16.97;10.70;;;;;;;19.76;100.00;99668.34;5037476;28;20236;-67
2022/06/23 00:23:25;;;;;;;16.53;11.53;;;;;;;19.78;100.00;99661.19;5051706;28;20185;-67
2022/06/23 00:26:01;;;;;;;18.00;11.03;;;;;;;19.57;100.00;99671.97;5052182;28;20220;-66
2022/06/23 00:28:31;;;;;;;15.20;10.93;;;;;;;19.71;100.00;99667.97;5052454;28;20577;-67
2022/06/23 00:31:03;;;;;;;21.20;13.37;;;;;;;19.70;100.00;99661.13;5041045;28;20237;-68
2022/06/23 00:33:37;;;;;;;15.50;12.23;;;;;;;19.68;100.00;99662.13;5051188;28;20200;-68
2022/06/23 00:36:31;;;;;;;18.50;13.07;;;;;;;19.54;100.00;99660.06;5051999;28;20607;-68
2022/06/23 00:38:57;;;;;;;14.10;12.63;;;;;;;19.68;100.00;99658.69;5050347;28;20270;-68
2022/06/23 00:41:29;;;;;;;20.93;13.83;;;;;;;19.70;100.00;99658.50;5040872;28;20229;-68
2022/06/23 00:43:59;;;;;;;18.20;11.37;;;;;;;19.54;100.00;99665.28;5051590;28;20190;-66
2022/06/23 00:46:35;;;;;;;16.87;13.07;;;;;;;19.49;100.00;99662.31;5051789;28;20192;-67
2022/06/23 00:49:09;;;;;;;17.77;12.63;;;;;;;19.47;100.00;99666.84;5051753;28;20184;-67
2022/06/23 00:51:47;;;;;;;20.30;12.03;;;;;;;19.56;100.00;99665.13;5040402;28;20235;-67
2022/06/23 00:54:23;;;;;;;22.53;13.00;;;;;;;19.51;100.00;99665.56;5048536;28;20176;-67
2022/06/23 00:56:57;;;;;;;19.17;12.80;;;;;;;19.47;100.00;99656.41;5036668;28;20630;-67
2022/06/23 00:59:37;;;;;;;20.37;12.43;;;;;;;19.43;100.00;99665.53;5033553;28;20568;-67
2022/06/23 01:02:14;;;;;;;22.47;13.20;;;;;;;19.39;100.00;99672.00;5034969;28;20251;-67
2022/06/23 01:04:45;;;;;;;16.40;12.00;;;;;;;19.50;100.00;99666.56;5050315;28;20620;-67
2022/06/23 01:07:25;;;;;;;21.10;12.93;;;;;;;19.35;100.00;99654.06;5050339;28;20192;-66
2022/06/23 01:10:11;;;;;;;19.70;12.87;;;;;;;19.35;100.00;99655.88;5051421;28;20235;-66
2022/06/23 01:12:41;;;;;;;18.10;11.80;;;;;;;19.42;100.00;99653.44;5039824;28;20209;-67
2022/06/23 01:15:26;;;;;;;18.40;11.77;;;;;;;19.30;100.00;99664.13;5050845;28;20185;-67
2022/06/23 01:18:13;;;;;;;17.37;12.30;;;;;;;19.28;100.00;99660.84;5050166;28;20181;-67
2022/06/23 01:20:50;;;;;;;19.87;11.60;;;;;;;19.32;100.00;99666.59;5042670;28;20792;-66
2022/06/23 01:23:29;;;;;;;23.40;13.97;;;;;;;19.34;100.00;99667.25;5038038;28;20182;-66
2022/06/23 01:26:09;;;;;;;19.43;11.93;;;;;;;19.32;100.00;99661.38;5051441;28;20251;-67
2022/06/23 01:28:41;;;;;;;20.67;11.73;;;;;;;19.25;100.00;99668.16;5051025;28;20516;-67
2022/06/23 01:31:23;;;;;;;21.50;13.17;;;;;;;18.95;100.00;99651.94;5040223;28;20355;-67
2022/06/23 01:34:01;;;;;;;23.23;13.27;;;;;;;18.97;100.00;99658.63;5050581;28;20580;-68
2022/06/23 01:36:44;;;;;;;28.20;14.17;;;;;;;18.97;100.00;99663.03;5051039;28;20686;-67
2022/06/23 01:39:24;;;;;;;17.53;11.97;;;;;;;18.99;100.00;99674.94;5050943;28;20205;-67
2022/06/23 01:41:58;;;;;;;19.87;11.57;;;;;;;18.91;100.00;99669.66;5039942;28;20245;-68
2022/06/23 01:44:42;;;;;;;19.40;11.90;;;;;;;18.82;100.00;99668.72;5051440;28;20208;-66
2022/06/23 01:47:37;;;;;;;16.30;11.67;;;;;;;18.72;100.00;99667.97;5039337;28;20211;-66
2022/06/23 01:50:14;;;;;;;17.60;13.07;;;;;;;18.69;100.00;99669.09;5045322;28;20654;-68
2022/06/23 01:52:45;;;;;;;20.57;12.83;;;;;;;18.68;100.00;99675.25;5037131;28;20197;-68
2022/06/23 01:55:24;;;;;;;23.40;12.20;;;;;;;18.61;100.00;99676.81;5054622;28;20216;-68
2022/06/23 01:57:56;;;;;;;18.37;11.37;;;;;;;18.57;100.00;99666.81;5042889;28;20177;-67
2022/06/23 02:00:24;;;;;;;18.33;11.73;;;;;;;18.55;100.00;99666.97;5042657;28;20254;-67
2022/06/23 02:02:59;;;;;;;15.83;11.67;;;;;;;18.45;100.00;99669.63;5053938;28;20185;-67
2022/06/23 02:05:47;;;;;;;14.43;11.40;;;;;;;18.31;100.00;99670.94;5053389;28;20204;-67
2022/06/23 02:08:37;;;;;;;21.27;12.83;;;;;;;18.25;100.00;99668.91;5055098;28;20185;-67
2022/06/23 02:11:20;;;;;;;22.30;14.20;;;;;;;18.28;100.00;99668.59;5041210;28;20246;-67
2022/06/23 02:13:54;;;;;;;24.23;15.20;;;;;;;18.23;100.00;99673.44;5054040;28;20223;-67
2022/06/23 02:16:28;;;;;;;18.53;14.00;;;;;;;18.18;100.00;99680.84;5041354;28;20565;-67
2022/06/23 02:19:03;;;;;;;16.97;14.97;;;;;;;18.15;100.00;99687.16;5054321;28;20652;-67
2022/06/23 02:21:39;;;;;;;21.30;14.87;;;;;;;18.13;100.00;99689.09;5043748;28;20229;-66
2022/06/23 02:24:21;;;;;;;17.33;14.63;;;;;;;18.17;100.00;99694.81;5054175;28;20253;-66
2022/06/23 02:27:02;;;;;;;26.13;16.77;;;;;;;18.06;100.00;99688.03;5053107;28;20225;-67
2022/06/23 02:29:38;;;;;;;22.43;16.83;;;;;;;18.08;100.00;99688.69;5053903;28;20197;-67
2022/06/23 02:32:17;;;;;;;23.83;15.90;;;;;;;17.94;100.00;99695.19;5043017;28;20668;-66
2022/06/23 02:35:01;;;;;;;23.60;16.30;;;;;;;17.89;100.00;99703.38;5054245;28;20185;-67
2022/06/23 02:37:48;;;;;;;20.57;15.83;;;;;;;17.84;100.00;99699.56;5054163;28;20201;-68
2022/06/23 02:40:21;;;;;;;21.40;15.20;;;;;;;17.96;100.00;99700.25;5029207;28;20274;-67
2022/06/23 02:42:54;;;;;;;21.70;14.73;;;;;;;17.86;100.00;99708.03;5053264;28;20177;-67
2022/06/23 02:45:34;;;;;;;19.07;13.97;;;;;;;17.83;100.00;99711.75;5054201;28;20644;-67
2022/06/23 02:48:37;;;;;;;15.27;12.80;;;;;;;17.76;100.00;99708.06;5054293;28;20184;-65
2022/06/23 02:51:14;;;;;;;22.53;15.83;;;;;;;17.81;100.00;99710.25;5043328;28;20323;-66
2022/06/23 02:53:56;;;;;;;21.00;13.97;;;;;;;17.83;100.00;99718.75;5053206;28;20920;-67
2022/06/23 02:56:40;;;;;;;22.23;14.57;;;;;;;17.77;100.00;99711.50;5044212;28;20189;-67
2022/06/23 02:59:08;;;;;;;20.27;15.83;;;;;;;17.84;100.00;99717.78;5051884;28;20177;-67
2022/06/23 03:01:46;;;;;;;27.07;17.33;;;;;;;17.81;100.00;99712.84;5020008;28;20256;-67
2022/06/23 03:04:19;;;;;;;23.13;18.30;;;;;;;17.87;100.00;99714.88;5050185;28;20512;-66
2022/06/23 03:06:56;;;;;;;20.10;16.77;;;;;;;17.78;100.00;99720.94;5053985;28;20185;-67
2022/06/23 03:09:42;;;;;;;21.60;17.87;;;;;;;17.61;100.00;99728.47;5052419;28;20169;-66
2022/06/23 03:12:13;;;;;;;21.43;16.87;;;;;;;17.69;100.00;99723.41;5027744;28;20279;-67
2022/06/23 03:15:01;;;;;;;24.77;16.63;;;;;;;17.63;100.00;99723.97;5053628;28;20193;-68
2022/06/23 03:17:32;;;;;;;24.33;18.13;;;;;;;17.63;100.00;99731.78;5042156;28;20626;-67
2022/06/23 03:20:10;;;;;;;23.77;18.07;;;;;;;17.66;100.00;99730.66;5053013;28;20267;-66
2022/06/23 03:22:52;;;;;;;24.73;16.57;;;;;;;17.66;100.00;99723.69;5042172;28;20209;-67
2022/06/23 03:25:33;;;;;;;26.30;20.67;;;;;;;17.74;100.00;99729.00;5053914;28;20303;-67
2022/06/23 03:28:10;;;;;;;26.53;21.30;;;;;;;17.84;100.00;99733.41;5053406;28;20205;-67
2022/06/23 03:30:43;;;;;;;25.77;20.93;;;;;;;17.80;100.00;99724.22;5017586;28;20316;-67
2022/06/23 03:33:18;;;;;;;27.63;22.97;;;;;;;17.90;100.00;99728.44;5029448;28;20267;-66
2022/06/23 03:35:50;;;;;;;31.17;21.83;;;;;;;17.87;100.00;99731.34;5051865;28;20192;-68
2022/06/23 03:41:37;;;;;;;24.17;18.73;;;;;;;17.87;100.00;99735.69;5042100;28;20278;-67
2022/06/23 03:44:48;;;;;;;25.00;20.60;;;;;;;17.90;100.00;99738.84;5052833;28;20264;-67
2022/06/23 03:47:25;;;;;;;26.07;19.67;;;;;;;17.97;100.00;99740.91;5051708;28;20192;-67
2022/06/23 03:49:58;;;;;;;26.00;20.77;;;;;;;18.06;100.00;99742.69;5052635;28;20205;-67
2022/06/23 03:52:47;;;;;;;26.90;21.53;;;;;;;18.13;100.00;99742.94;5041907;28;20331;-68
2022/06/23 03:55:37;;;;;;;34.33;24.53;;;;;;;18.28;100.00;99736.28;5052178;28;20195;-67
2022/06/23 03:58:13;;;;;;;30.00;24.07;;;;;;;18.30;100.00;99741.38;5042615;28;20239;-67
2022/06/23 04:00:45;;;;;;;32.57;25.43;;;;;;;18.37;100.00;99745.06;5043857;28;20285;-66
2022/06/23 04:03:26;;;;;;;36.33;23.20;;;;;;;18.34;100.00;99738.34;5062652;28;20181;-67
2022/06/23 04:05:54;;;;;;;26.73;21.93;;;;;;;18.26;100.00;99735.63;5052233;28;20181;-67
2022/06/23 04:08:26;;;;;;;24.53;21.17;;;;;;;18.31;100.00;99743.03;5052290;28;20633;-67
2022/06/23 04:10:53;;;;;;;28.07;21.43;;;;;;;18.44;100.00;99751.31;5037856;28;20221;-67
2022/06/23 04:13:31;;;;;;;28.47;21.00;;;;;;;18.48;100.00;99744.88;5050396;28;20174;-66
2022/06/23 04:16:04;;;;;;;27.30;21.73;;;;;;;18.36;100.00;99752.03;5051916;28;20177;-67
2022/06/23 04:18:31;;;;;;;25.47;20.40;;;;;;;18.52;100.00;99750.63;5052678;28;20185;-67
2022/06/23 04:21:07;;;;;;;26.20;19.67;;;;;;;18.60;100.00;99749.91;5042985;28;20305;-67
2022/06/23 04:23:56;;;;;;;27.50;18.03;;;;;;;18.60;100.00;99747.28;5059345;28;20223;-67
2022/06/23 04:26:40;;;;;;;21.87;18.20;;;;;;;18.81;100.00;99754.84;5052400;28;20624;-67
2022/06/23 04:29:16;;;;;;;24.63;17.47;;;;;;;19.01;100.00;99748.59;5052019;28;20185;-63
2022/06/23 04:31:49;;;;;;;26.13;19.03;;;;;;;18.90;100.00;99759.19;5033432;28;20236;-64
2022/06/23 04:34:25;;;;;;;22.77;16.60;;;;;;;19.01;100.00;99753.81;5049323;28;20186;-65
2022/06/23 04:36:51;;;;;;;24.13;16.97;;;;;;;19.22;100.00;99751.91;5051382;28;20227;-65
2022/06/23 04:39:38;;;;;;;22.07;16.87;;;;;;;19.11;100.00;99758.13;5051304;28;20660;-65
2022/06/23 04:42:20;;;;;;;22.50;18.13;;;;;;;19.27;100.00;99758.28;5057190;28;20228;-64
2022/06/23 04:44:50;;;;;;;23.97;17.03;;;;;;;19.36;100.00;99761.78;5046314;28;20323;-65
2022/06/23 04:47:20;;;;;;;22.37;16.70;;;;;;;19.47;100.00;99763.34;5051898;28;20181;-64
2022/06/23 04:50:00;;;;;;;21.00;16.87;;;;;;;19.69;100.00;99764.69;5049885;28;20613;-64
2022/06/23 04:52:46;;;;;;;22.67;17.33;;;;;;;19.82;100.00;99767.72;5040139;28;20212;-65
2022/06/23 04:55:20;;;;;;;26.80;16.87;;;;;;;20.00;100.00;99770.31;5049526;28;20555;-64
2022/06/23 04:58:03;;;;;;;24.33;17.60;;;;;;;20.17;100.00;99773.06;5039345;28;20408;-65
2022/06/23 05:00:43;;;;;;;30.77;17.70;;;;;;;20.26;100.00;99768.69;5038774;28;20233;-66
2022/06/23 05:03:44;;;;;;;25.20;16.70;;;;;;;20.32;100.00;99774.09;5051046;28;20596;-66
2022/06/23 05:06:13;;;;;;;21.80;15.87;;;;;;;20.13;100.00;99771.69;5050834;28;20176;-65
2022/06/23 05:08:42;;;;;;;22.67;17.03;;;;;;;20.15;100.00;99778.41;5049692;28;20211;-65
2022/06/23 05:11:28;;;;;;;26.43;16.43;;;;;;;20.46;100.00;99787.56;5041318;28;20251;-65
2022/06/23 05:14:00;;;;;;;29.67;15.73;;;;;;;20.63;100.00;99791.09;5055870;28;20188;-66
2022/06/23 05:16:36;;;;;;;22.47;15.60;;;;;;;20.98;100.00;99788.47;5051437;28;20173;-66
2022/06/23 05:19:09;;;;;;;25.23;16.13;;;;;;;20.90;100.00;99787.47;5050847;28;20192;-65
2022/06/23 05:21:44;;;;;;;20.30;15.97;;;;;;;20.80;100.00;99791.97;5036084;28;20255;-65
2022/06/23 05:24:24;;;;;;;23.13;15.83;;;;;;;20.92;100.00;99780.25;5042308;28;20294;-65
2022/06/23 05:26:58;;;;;;;21.80;15.90;;;;;;;20.87;100.00;99789.56;5050614;28;20255;-65
2022/06/23 05:29:40;;;;;;;25.30;16.00;;;;;;;20.95;100.00;99779.16;5050913;28;20185;-66
2022/06/23 05:32:16;;;;;;;25.90;15.97;;;;;;;21.08;100.00;99783.91;5039881;28;20225;-64
2022/06/23 05:34:51;;;;;;;22.70;16.23;;;;;;;21.41;100.00;99782.16;5051111;28;20197;-64
2022/06/23 05:37:24;;;;;;;24.90;15.17;;;;;;;21.52;100.00;99774.97;5050035;28;20169;-65
2022/06/23 05:40:01;;;;;;;21.53;15.20;;;;;;;21.60;100.00;99777.63;5050443;28;20193;-65
2022/06/23 05:42:30;;;;;;;20.80;15.00;;;;;;;21.97;98.95;99781.53;5040205;28;20221;-65
2022/06/23 05:45:04;;;;;;;21.27;15.07;;;;;;;22.19;96.08;99774.78;5049782;28;20199;-64
2022/06/23 05:47:32;;;;;;;24.47;12.70;;;;;;;22.28;94.06;99772.94;5051365;28;20185;-64
2022/06/23 05:50:03;;;;;;;15.77;11.47;;;;;;;22.41;90.92;99769.81;5049211;28;20204;-63
2022/06/23 05:52:41;;;;;;;16.63;11.43;;;;;;;22.18;92.34;99780.19;5039564;28;20221;-64
2022/06/23 05:55:16;;;;;;;16.20;10.27;;;;;;;22.18;92.15;99774.94;5051411;28;20176;-63
2022/06/23 05:57:51;;;;;;;17.00;11.27;;;;;;;22.30;91.59;99781.47;5037936;28;20230;-63
2022/06/23 06:00:31;;;;;;;18.77;10.63;;;;;;;22.92;88.00;99781.75;5039920;28;20284;-64
2022/06/23 06:03:07;;;;;;;15.47;10.70;;;;;;;23.59;83.15;99773.28;5025373;28;20173;-65
2022/06/23 06:05:38;;;;;;;19.10;12.27;;;;;;;23.97;78.80;99781.16;5046464;28;20185;-64
2022/06/23 06:08:10;;;;;;;19.40;10.87;;;;;;;23.89;78.40;99778.59;5050946;28;20189;-66
2022/06/23 06:10:36;;;;;;;14.60;10.50;;;;;;;24.47;74.71;99786.72;5040350;28;20232;-64
2022/06/23 06:13:07;;;;;;;16.73;12.17;;;;;;;25.14;71.81;99781.44;5053185;28;20193;-64
2022/06/23 06:18:54;;;;;;;15.20;10.20;;;;;;;25.64;67.60;99784.16;5048999;28;20744;-65
2022/06/23 06:21:22;;;;;;;13.23;9.90;;;;;;;25.74;66.89;99783.84;5019950;28;20312;-66
2022/06/23 06:23:54;;;;;;;17.42;10.90;;;;;;;25.83;66.40;99782.69;5040478;28;20173;-66
2022/06/23 06:26:27;;;;;;;19.33;12.23;;;;;;;26.21;64.95;99779.72;5050202;28;20246;-65
2022/06/23 06:28:59;;;;;;;14.88;12.32;;;;;;;26.19;64.22;99771.19;5046651;28;20633;-65
2022/06/23 06:31:33;;;;;;;17.33;11.98;;;;;;;26.68;62.56;99769.41;5025529;28;20230;-65
2022/06/23 06:34:04;;;;;;;23.60;15.20;;;;;;;26.57;62.68;99772.59;5036509;28;20193;-65
2022/06/23 06:36:32;;;;;;;16.45;14.40;;;;;;;26.40;63.31;99769.47;5047084;28;20239;-64
2022/06/23 06:39:21;;;;;;;20.02;16.13;;;;;;;26.61;62.01;99776.47;5052367;28;20265;-63
2022/06/23 06:41:52;;;;;;;20.48;15.73;;;;;;;26.75;62.19;99780.00;5022268;28;20287;-64
2022/06/23 06:47:41;;;;;;;17.70;15.85;;;;;;;28.15;55.79;99781.94;5043698;28;20216;-63
2022/06/23 06:50:33;;;;;;;20.98;17.50;;;;;;;28.19;55.81;99782.34;5040991;28;20709;-64
2022/06/23 06:53:05;;;;;;;23.38;18.67;;;;;;;27.37;58.71;99787.84;5059395;28;20189;-64
2022/06/23 06:56:20;;;;;;;25.58;17.98;;;;;;;27.97;57.09;99779.09;5049372;28;20181;-63
2022/06/23 06:58:54;;;;;;;17.73;16.08;;;;;;;28.32;54.85;99782.31;4996758;28;20194;-63
2022/06/23 07:01:22;;;;;;;18.58;16.73;;;;;;;28.10;56.26;99788.88;5020394;28;20321;-63
2022/06/23 07:03:51;;;;;;;19.27;16.80;;;;;;;28.37;54.83;99783.50;5040445;28;20403;-64
2022/06/23 07:06:32;;;;;;;20.88;15.00;;;;;;;28.32;54.72;99784.94;5052482;28;20177;-64
2022/06/23 07:09:06;;;;;;;20.63;15.27;;;;;;;27.80;57.41;99790.09;5052318;28;20177;-64
2022/06/23 07:11:36;;;;;;;22.10;15.73;;;;;;;27.91;56.42;99783.41;5040796;28;20639;-65
2022/06/23 07:14:07;;;;;;;17.75;15.13;;;;;;;28.57;55.25;99786.91;5053643;28;20192;-64
2022/06/23 07:16:43;;;;;;;17.55;15.65;;;;;;;29.63;50.62;99787.31;5032537;28;20232;-64
2022/06/23 07:19:42;;;;;;;18.38;16.30;;;;;;;30.07;48.09;99783.88;5049808;28;20691;-65
2022/06/23 07:22:26;;;;;;;22.25;16.95;;;;;;;30.03;47.49;99780.84;5048785;28;20228;-64
2022/06/23 07:24:57;;;;;;;21.52;15.38;;;;;;;30.03;48.47;99774.72;5050137;28;20189;-64
2022/06/23 07:27:39;;;;;;;17.15;15.27;;;;;;;29.01;51.50;99775.72;5052160;28;20208;-64
2022/06/23 07:30:11;;;;;;;18.50;14.65;;;;;;;30.01;48.96;99782.91;5036917;28;20201;-64
2022/06/23 07:32:55;;;;;;;18.83;16.63;;;;;;;29.53;48.99;99779.03;5026697;28;20259;-65
2022/06/23 07:35:29;;;;;;;17.38;13.85;;;;;;;29.17;51.30;99785.78;5051692;28;20590;-65
2022/06/23 07:38:12;;;;;;;16.40;13.93;;;;;;;29.85;49.31;99784.25;5052942;28;20189;-65
2022/06/23 07:40:46;;;;;;;16.80;13.00;;;;;;;29.73;50.38;99776.22;5031821;28;20316;-65
2022/06/23 07:43:18;;;;;;;18.27;13.60;;;;;;;29.80;48.04;99776.16;5058308;28;20335;-66
2022/06/23 07:45:52;;;;;;;17.23;11.20;;;;;;;30.20;47.53;99770.47;5051635;28;20592;-66
2022/06/23 07:48:17;;;;;;;14.07;8.85;;;;;;;30.91;46.20;99772.66;5052931;28;20174;-64
2022/06/23 07:50:43;;;;;;;11.77;9.07;;;;;;;31.91;43.21;99777.47;5037586;28;20231;-67
2022/06/23 07:53:16;;;;;;;13.70;9.43;;;;;;;31.92;42.68;99776.44;5045883;28;20267;-67
2022/06/23 07:55:43;;;;;;;19.85;10.90;;;;;;;31.83;41.47;99773.28;5049868;28;20197;-65
2022/06/23 07:58:09;;;;;;;12.25;10.90;;;;;;;30.74;44.82;99775.97;5040052;28;20236;-71
2022/06/23 08:00:41;;;;;;;13.60;10.13;;;;;;;31.97;42.88;99774.69;5038045;28;20337;-71
2022/06/23 08:03:18;;;;;;;10.45;8.50;;;;;;;31.09;44.22;99781.66;5039933;28;20638;-79
2022/06/23 08:05:59;;;;;;;11.52;8.70;;;;;;;31.42;43.01;99781.13;5050655;28;20203;-72
2022/06/23 08:08:29;;;;;;;10.80;8.50;;;;;;;33.20;39.63;99779.97;5051394;28;20665;-72
2022/06/23 08:16:49;;;;;;;11.07;6.75;;;;;;;32.81;38.88;99773.44;5048870;28;20235;-72
2022/06/23 08:17:48;;;;;;;11.77;8.05;;;;;;;32.59;40.07;99767.97;5049687;28;20196;-70
2022/06/23 08:20:17;;;;;;;9.93;7.82;;;;;;;33.69;37.95;99768.72;5041313;28;21044;-70
2022/06/23 08:22:43;;;;;;;14.00;7.78;;;;;;;35.14;36.07;99765.84;5065220;28;20204;-71
2022/06/23 08:52:14;;;;;;;10.45;6.22;;;;;;;30.94;43.58;99740.34;5012955;28;20745;-70
2022/06/23 08:55:06;;;;;;;12.23;6.55;;;;;;;31.01;43.49;99742.91;5047653;28;20242;-71
2022/06/23 08:57:40;;;;;;;15.00;6.55;;;;;;;31.10;44.58;99740.75;5045050;28;20189;-68
2022/06/23 09:00:16;;;;;;;10.60;6.15;;;;;;;30.91;44.16;99744.28;5039155;28;20197;-70
2022/06/23 09:03:02;;;;;;;12.27;6.28;;;;;;;31.16;43.64;99745.16;5049866;28;20189;-70
2022/06/23 09:05:54;;;;;;;11.05;6.65;;;;;;;30.31;46.07;99747.69;5049536;28;20223;-69
2022/06/23 09:08:29;;;;;;;13.88;6.65;;;;;;;29.87;48.26;99733.66;5049655;28;20169;-70
2022/06/23 09:11:13;;;;;;;14.23;6.93;;;;;;;31.96;43.25;99733.16;5035126;28;20294;-70
2022/06/23 09:13:55;;;;;;;11.05;7.30;;;;;;;32.24;41.96;99731.63;5035063;28;20220;-69
2022/06/23 09:16:44;;;;;;;8.30;6.13;;;;;;;34.16;37.08;99740.81;5037516;28;20212;-72
2022/06/23 09:19:13;;;;;;;10.25;5.72;;;;;;;33.56;37.60;99736.00;5049241;28;20181;-73
2022/06/23 09:22:15;;;;;;;10.25;6.32;;;;;;;32.94;38.95;99735.03;5040709;28;20256;-69
2022/06/23 09:25:02;;;;;;;11.57;6.88;;;;;;;30.94;43.63;99731.59;5059040;28;20656;-66
2022/06/23 09:27:39;;;;;;;9.85;7.00;;;;;;;30.72;44.83;99727.59;5043247;28;20638;-69
2022/06/23 09:30:11;;;;;;;13.23;6.88;;;;;;;31.66;42.94;99722.69;5036333;28;20225;-69
2022/06/23 09:33:00;;;;;;;12.32;7.30;;;;;;;32.41;39.75;99722.88;5023949;28;20181;-68
2022/06/23 09:35:44;;;;;;;10.90;7.47;;;;;;;31.19;42.88;99720.81;5049465;28;20181;-72
2022/06/23 09:38:28;;;;;;;14.40;7.00;;;;;;;29.94;47.70;99727.31;5047425;28;20189;-70
2022/06/23 09:41:30;;;;;;;16.00;7.65;;;;;;;30.34;46.10;99715.44;5041001;28;20235;-68
2022/06/23 09:44:30;;;;;;;16.33;7.65;;;;;;;29.77;50.28;99716.44;5041588;28;20177;-71
2022/06/23 09:47:04;;;;;;;10.95;7.85;;;;;;;29.96;49.49;99719.13;4989035;28;20329;-73
2022/06/23 09:49:38;;;;;;;15.80;8.75;;;;;;;29.39;50.03;99704.16;4989122;28;20258;-69
2022/06/23 09:52:51;;;;;;;16.60;7.20;;;;;;;29.70;52.02;99704.28;4957894;28;20271;-72
2022/06/23 09:55:39;;;;;;;13.70;7.82;;;;;;;30.53;47.33;99708.25;4968511;28;20215;-71
2022/06/23 09:58:28;;;;;;;12.10;6.72;;;;;;;30.87;45.89;99705.94;4989872;28;20285;-71
2022/06/23 10:01:13;;;;;;;10.30;6.60;;;;;;;31.99;43.44;99708.78;4962071;28;20231;-69
2022/06/23 10:03:45;;;;;;;10.88;6.70;;;;;;;33.33;38.60;99706.88;4972289;28;20222;-71
2022/06/23 10:06:25;;;;;;;15.15;6.15;;;;;;;34.82;36.41;99706.00;4988811;28;20183;-69
2022/06/23 10:09:09;;;;;;;11.38;6.50;;;;;;;34.02;37.23;99713.69;4988647;28;20196;-68
2022/06/23 10:11:53;;;;;;;11.20;6.43;;;;;;;35.61;33.57;99722.31;4962668;28;20233;-69
2022/06/23 10:14:28;;;;;;;12.75;7.22;;;;;;;34.34;35.28;99718.31;4976442;28;20266;-69
2022/06/23 10:17:06;;;;;;;9.20;5.88;;;;;;;35.83;34.34;99708.78;4976555;28;20237;-68
2022/06/23 10:20:19;;;;;;;9.82;5.90;;;;;;;34.76;34.31;99715.03;4975937;28;20796;-69
2022/06/23 10:23:03;;;;;;;16.58;6.05;;;;;;;33.20;37.64;99713.34;4955430;28;20213;-69
2022/06/23 10:26:07;;;;;;;12.15;6.22;;;;;;;33.09;39.18;99709.69;5052532;28;20524;-69
2022/06/23 10:28:38;;;;;;;9.70;5.70;;;;;;;34.72;35.10;99701.38;5003084;28;20268;-70
2022/06/23 10:31:28;;;;;;;12.43;6.72;;;;;;;34.99;34.71;99713.91;4971136;28;20317;-70
2022/06/23 10:34:11;;;;;;;10.65;7.45;;;;;;;33.14;37.79;99705.28;4994220;28;20282;-69
2022/06/23 10:36:58;;;;;;;10.70;7.53;;;;;;;32.22;39.29;99687.69;4995839;28;20657;-70
2022/06/23 10:40:04;;;;;;;13.55;6.55;;;;;;;34.73;36.65;99686.13;4998233;28;20226;-70
2022/06/23 10:42:44;;;;;;;13.82;6.68;;;;;;;36.03;32.91;99688.56;4985655;28;20229;-70
2022/06/23 10:45:10;;;;;;;12.52;6.82;;;;;;;35.94;33.65;99690.94;4980505;28;20195;-70
2022/06/23 10:48:00;;;;;;;12.40;7.18;;;;;;;34.81;34.64;99691.00;4994496;28;20186;-69
2022/06/23 10:50:36;;;;;;;8.18;6.35;;;;;;;33.36;37.24;99679.75;4979189;28;20253;-70
2022/06/23 10:53:23;;;;;;;9.63;5.82;;;;;;;31.47;42.95;99677.59;4995337;28;20668;-71
2022/06/23 10:55:58;;;;;;;9.52;6.20;;;;;;;31.62;42.87;99673.66;4994981;28;20187;-68
2022/06/23 10:59:07;;;;;;;12.20;6.97;;;;;;;30.57;44.97;99668.81;5000672;28;20211;-70
2022/06/23 11:01:50;;;;;;;13.18;7.78;;;;;;;30.17;46.03;99669.34;5008816;28;20250;-66
2022/06/23 11:05:07;;;;;;;12.65;7.38;;;;;;;29.89;47.00;99666.16;5050855;28;20178;-68
2022/06/23 11:08:00;;;;;;;12.07;8.00;;;;;;;29.49;48.94;99661.28;4991347;28;20200;-67
2022/06/23 11:10:29;;;;;;;9.80;6.85;;;;;;;29.78;48.18;99648.31;4965092;28;20285;-68
2022/06/23 11:13:32;;;;;;;11.95;8.07;;;;;;;29.21;49.27;99648.47;4991632;28;20225;-68
2022/06/23 11:16:13;;;;;;;13.18;8.18;;;;;;;29.00;49.74;99645.19;4979130;28;20697;-68
2022/06/23 11:18:56;;;;;;;12.93;7.80;;;;;;;29.55;51.24;99643.69;4971819;28;20262;-69
2022/06/23 11:21:44;;;;;;;11.38;7.70;;;;;;;30.03;47.55;99639.50;4971422;28;20654;-69
2022/06/23 11:24:38;;;;;;;10.38;7.13;;;;;;;30.25;46.45;99635.34;4971773;28;20203;-68
2022/06/23 11:27:57;;;;;;;10.85;6.68;;;;;;;30.02;45.83;99638.69;4973796;28;20195;-70
2022/06/23 11:30:52;;;;;;;10.73;6.75;;;;;;;29.28;48.03;99639.44;4886738;28;20238;-68
2022/06/23 11:33:44;;;;;;;11.25;6.60;;;;;;;29.40;48.58;99630.81;4923200;28;20198;-68
2022/06/23 11:36:10;;;;;;;9.25;6.68;;;;;;;29.36;47.80;99622.50;4990528;28;20246;-67
2022/06/23 11:38:56;;;;;;;8.38;7.10;;;;;;;29.09;49.20;99617.41;4990660;28;20286;-71
2022/06/23 11:41:39;;;;;;;9.25;6.95;;;;;;;29.19;48.65;99611.63;4964721;28;20238;-67
2022/06/23 11:44:33;;;;;;;9.63;6.13;;;;;;;29.46;47.21;99606.09;5010605;28;20291;-66
2022/06/23 11:47:03;;;;;;;9.93;6.63;;;;;;;30.01;45.94;99607.13;5034426;28;20194;-66
2022/06/23 11:49:47;;;;;;;14.60;6.82;;;;;;;30.21;46.26;99606.84;5050781;28;20174;-67
2022/06/23 11:52:35;;;;;;;12.38;7.28;;;;;;;29.70;45.75;99604.38;5021942;28;20316;-68
2022/06/23 11:55:00;;;;;;;9.60;6.65;;;;;;;29.88;45.60;99598.25;5049375;28;20265;-69
2022/06/23 11:57:53;;;;;;;11.00;6.88;;;;;;;29.89;47.50;99591.09;5052560;28;20260;-73
2022/06/23 12:00:31;;;;;;;11.93;7.30;;;;;;;29.88;45.42;99587.66;5038753;28;20193;-67
2022/06/23 12:03:08;;;;;;;11.98;7.53;;;;;;;29.65;46.68;99584.91;5041109;28;20184;-68
2022/06/23 12:06:06;;;;;;;12.30;6.50;;;;;;;29.39;47.52;99590.25;5052639;28;20185;-72
2022/06/23 12:08:46;;;;;;;8.02;5.80;;;;;;;29.55;46.36;99586.22;5047847;28;20205;-71
2022/06/23 12:11:11;;;;;;;10.68;6.25;;;;;;;29.43;46.51;99580.03;5035660;28;20675;-67
2022/06/23 12:13:37;;;;;;;8.15;5.30;;;;;;;29.59;46.92;99584.72;5051059;28;20223;-67
2022/06/23 12:16:04;;;;;;;10.40;5.93;;;;;;;29.80;45.08;99580.00;5052288;28;20185;-66
2022/06/23 12:18:35;;;;;;;8.77;6.05;;;;;;;29.94;45.32;99572.72;5052608;28;20212;-69
2022/06/23 12:21:14;;;;;;;10.90;6.38;;;;;;;29.46;45.56;99575.09;5041555;28;20228;-64
2022/06/23 12:24:02;;;;;;;10.02;5.88;;;;;;;29.44;45.32;99566.56;5044184;28;20561;-69
2022/06/23 12:26:32;;;;;;;8.48;5.60;;;;;;;29.71;46.45;99563.59;5052296;28;20211;-71
2022/06/23 12:29:12;;;;;;;11.88;6.28;;;;;;;29.56;44.45;99558.69;5049235;28;20177;-61
2022/06/23 12:32:00;;;;;;;9.68;5.55;;;;;;;29.75;45.58;99563.97;5033019;28;20244;-61
2022/06/23 12:34:36;;;;;;;11.43;6.07;;;;;;;29.65;44.78;99545.94;5048397;28;20185;-63
2022/06/23 12:37:38;;;;;;;7.07;5.13;;;;;;;29.72;44.12;99561.75;5050332;28;20212;-65
2022/06/23 12:40:13;;;;;;;8.82;6.05;;;;;;;29.23;44.83;99551.88;5039732;28;20797;-62
2022/06/23 12:42:44;;;;;;;15.60;6.18;;;;;;;29.83;45.34;99550.38;5038756;28;20732;-70
2022/06/23 12:45:31;;;;;;;9.45;5.60;;;;;;;29.95;44.22;99545.16;5046368;28;20188;-60
2022/06/23 12:48:25;;;;;;;7.20;4.90;;;;;;;30.27;42.99;99540.41;5049042;28;20581;-64
2022/06/23 12:51:45;;;;;;;8.52;4.82;;;;;;;30.04;42.12;99535.88;5031476;28;20239;-65